Etusivu
METAR-TAF:

METAR-TAF

Lentoasemat :

Libreville, Gabon

Leveyspiiri: 00-27N, Pituuspiiri: 009-25E, korkeus merenpinnasta: 12 m

Tämänhetkinen sää

Tämä raportti tehtiin 2 tuntia ja 12 minuuttia sitten, kello 22.00 UTC
Tuuli 9 kn etelästä
Lämpötila 29°C
Kosteus 84%
Ilmanpaine 1010 hPa
Näkyvyys 10 km tai enemmän
Muutamia pilviä 1200 ft:n korkeudessa

METAR: FOOL 232200Z 17009KT 9999 FEW012 29/26 Q1010 NOSIG

Aika: 01:12 (00:12 UTC)

Sääennuste

Tämä raportti tehtiin 1 tunti ja 12 minuuttia sitten, kello 23.00 UTC
Ennuste voimassa 24. päivästä klo 00 UTC - 25. päivään klo 06 UTC
Tuuli 7 kn etelästä
Näkyvyys 10 km tai enemmän
Hajanaisia pilviä 1200 ft:n korkeudessa
Hajonneita pilviä 3300 ft:n korkeudessa

TAF: FOOL 232300Z 2400/2506 17007KT 9999 SCT012 BKN033

Säähavainnot ja -ennusteet yli 4000 lentoasemalta (METAR- ja TAF-raportit).

Käytössä olevat sääasemat on merkitty karttaan keltaisilla ja punaisilla pisteillä.

Aseta hiiri pisteen päälle nähdäksesi sääaseman nimen.

Klikkaa sitten nähdäksesi säähavainnot ja -ennusteet.

Kartan vaihtaminen: klikkaa mustalla rastilla varustettuja vihreitä pisteitä, niin voit zoomata sisään; viivalla varustettua vihreää pistettä, niin voit zoomata ulos tai vihreitä nuolia, niin pääset viereisille kartoille.


METAR-TAF: